メインページ
METAR-TAF:

METAR-TAF

空港 :

Key Lake, サスカチュワン州, カナダ

緯度: 57-15N, 経度: 105-37W, 海抜: 509m

現時点の気象観測

当レポートは32分前の04:17(UTC)に作成
の風 7kt
気温 -7°C
湿度 100%
気圧 1014 hPa
視程: 1.6km
高度300ftの曇り

METAR: CYKJ 270417Z AUTO 19007KT 1SM BR OVC003 M07/M07 A2995 RMK ICG SLP181

時間: 22:49 (04:49 UTC)

予報

当レポートは9時間10分前の19:39(UTC)に作成
予報は26日の 19時(UTC)から 26日の 24時(UTC)まで有効
の風 8kt
視程: 1.2km
高度300ftの曇り
26日の 19時(UTC)から 26日の 24時(UTC)まで一時的に
視程: 9.7km
高度600ftの曇り

TAF: CYKJ 261939Z 2619/2624 18008KT 3/4SM BR OVC003 TEMPO 2619/2624 6SM BR OVC006 RMK FCST BASED ON AUTO OBS. NXT FCST WILL BE ISSUED AT 270945Z

4,000以上の空港の気象観測と天気予報(METAR報とTAF報)

利用可能な観測所は地図上に黄色い丸と赤い丸で示す。

丸の上にカーソルを重ねると観測所名を参照できる。

次にクリックすると気象観測と天気予報を参照できる。

マップの切り替え:黒色「×」印の緑ボタンをクリックして拡大、「-」印の緑ボタンをクリックして縮小、緑色の三角印をクリックして隣りの地図に切り替え


METAR-TAF: